createdAt,value
2018-12-29T00:02:46.173Z,1.12
2018-12-29T00:07:49.639Z,1.05
2018-12-29T00:12:53.127Z,0.97
2018-12-29T00:17:56.567Z,1.30
2018-12-29T00:23:00.031Z,1.20
2018-12-29T00:28:03.500Z,1.20
2018-12-29T00:33:06.963Z,1.30
2018-12-29T00:38:10.432Z,1.07
2018-12-29T00:43:13.898Z,1.03
2018-12-29T00:48:17.367Z,1.00
2018-12-29T00:53:20.830Z,0.93
2018-12-29T00:58:24.296Z,1.00
2018-12-29T01:03:27.761Z,1.10
2018-12-29T01:08:31.222Z,1.23
2018-12-29T01:13:34.688Z,1.00
2018-12-29T01:18:38.150Z,1.00
2018-12-29T01:23:41.640Z,1.10
2018-12-29T01:28:45.107Z,0.93
2018-12-29T01:33:48.574Z,1.10
2018-12-29T01:38:52.047Z,0.80
2018-12-29T01:43:55.510Z,0.83
2018-12-29T01:48:58.975Z,1.12
2018-12-29T01:54:02.445Z,1.05
2018-12-29T01:59:05.910Z,0.90
2018-12-29T02:04:09.381Z,1.20
2018-12-29T02:09:12.840Z,1.00
2018-12-29T02:14:16.303Z,1.10
2018-12-29T02:19:19.767Z,0.90
2018-12-29T02:24:23.233Z,0.97
2018-12-29T02:29:26.706Z,1.17
2018-12-29T02:34:30.168Z,0.90
2018-12-29T02:39:33.630Z,1.13
2018-12-29T02:44:37.096Z,1.07
2018-12-29T02:49:40.587Z,1.00
2018-12-29T02:54:44.055Z,0.82
2018-12-29T02:59:47.581Z,0.98
2018-12-29T03:04:51.052Z,1.10
2018-12-29T03:09:54.515Z,0.90
2018-12-29T03:14:57.977Z,0.90
2018-12-29T03:20:01.461Z,0.83
2018-12-29T03:25:06.041Z,1.07
2018-12-29T03:30:09.593Z,0.80
2018-12-29T03:35:13.051Z,0.90
2018-12-29T03:40:16.524Z,0.73
2018-12-29T03:45:19.985Z,0.90
2018-12-29T03:50:23.451Z,0.80
2018-12-29T03:55:26.923Z,1.10
2018-12-29T04:00:30.402Z,1.20
2018-12-29T04:05:33.868Z,0.90
2018-12-29T04:10:37.334Z,0.80
2018-12-29T04:15:40.796Z,0.97
2018-12-29T04:20:44.265Z,0.90
2018-12-29T04:25:47.728Z,0.80
2018-12-29T04:30:51.191Z,0.87
2018-12-29T04:35:54.660Z,0.70
2018-12-29T04:40:58.125Z,0.90
2018-12-29T04:46:05.177Z,0.80
2018-12-29T04:51:06.775Z,0.90
2018-12-29T04:56:10.243Z,0.90
2018-12-29T05:01:13.711Z,1.00
2018-12-29T05:06:17.171Z,0.90
2018-12-29T05:11:20.644Z,0.57
2018-12-29T05:16:24.107Z,0.93
2018-12-29T05:21:27.571Z,0.80
2018-12-29T05:26:31.052Z,0.80
2018-12-29T05:31:34.515Z,0.88
2018-12-29T05:36:37.983Z,0.62
2018-12-29T05:41:41.448Z,0.90
2018-12-29T05:46:44.911Z,0.73
2018-12-29T05:51:48.376Z,0.77
2018-12-29T05:56:51.850Z,0.83
2018-12-29T06:01:55.315Z,0.88
2018-12-29T06:06:58.778Z,1.03
2018-12-29T06:12:02.254Z,0.80
2018-12-29T06:17:05.723Z,1.00
2018-12-29T06:22:09.186Z,0.77
2018-12-29T06:27:12.652Z,1.03
2018-12-29T06:32:16.124Z,0.90
2018-12-29T06:37:19.593Z,0.70
2018-12-29T06:42:23.061Z,1.00
2018-12-29T06:47:26.534Z,0.60
2018-12-29T06:52:30.005Z,0.87
2018-12-29T06:57:33.471Z,0.97
2018-12-29T07:02:36.946Z,0.90
2018-12-29T07:07:40.412Z,1.00
2018-12-29T07:12:43.878Z,1.07
2018-12-29T07:17:47.343Z,0.97
2018-12-29T07:22:50.810Z,0.65
2018-12-29T07:27:54.280Z,0.87
2018-12-29T07:32:57.750Z,0.90
2018-12-29T07:38:01.215Z,0.80
2018-12-29T07:43:04.683Z,0.90
2018-12-29T07:48:08.152Z,1.30
2018-12-29T07:53:11.620Z,0.90
2018-12-29T07:58:15.082Z,0.70
2018-12-29T08:03:18.551Z,0.90
2018-12-29T08:08:22.016Z,0.83
2018-12-29T08:13:25.486Z,0.67
2018-12-29T08:18:28.951Z,1.05
2018-12-29T08:23:32.416Z,0.93
2018-12-29T08:28:35.882Z,0.80
2018-12-29T08:33:39.343Z,3.10
2018-12-29T08:38:42.819Z,4.10
2018-12-29T08:43:46.289Z,4.63
2018-12-29T08:48:49.756Z,5.43
2018-12-29T08:53:53.223Z,4.87
2018-12-29T08:58:56.704Z,3.50
2018-12-29T09:04:00.171Z,3.03
2018-12-29T09:09:04.579Z,2.63
2018-12-29T09:14:08.048Z,2.30
2018-12-29T09:19:11.511Z,2.60
2018-12-29T09:24:14.976Z,2.30
2018-12-29T09:29:18.445Z,1.93
2018-12-29T09:34:22.535Z,2.30
2018-12-29T09:39:26.165Z,2.40
2018-12-29T09:44:29.631Z,1.90
2018-12-29T09:49:33.096Z,1.53
2018-12-29T09:54:36.563Z,2.23
2018-12-29T09:59:40.030Z,1.90
2018-12-29T10:04:43.495Z,2.27
2018-12-29T10:09:46.964Z,1.90
2018-12-29T10:14:50.432Z,2.27
2018-12-29T10:19:53.895Z,1.87
2018-12-29T10:24:57.360Z,2.23
2018-12-29T10:30:00.826Z,1.43
2018-12-29T10:35:04.578Z,2.00
2018-12-29T10:40:08.025Z,1.70
2018-12-29T10:45:11.492Z,2.05
2018-12-29T10:50:14.955Z,1.43
2018-12-29T10:55:18.419Z,1.90
2018-12-29T11:00:21.888Z,1.80
2018-12-29T11:05:25.358Z,2.20
2018-12-29T11:10:28.824Z,1.92
2018-12-29T11:15:32.290Z,2.20
2018-12-29T11:20:35.754Z,2.47
2018-12-29T11:25:39.237Z,1.90
2018-12-29T11:30:42.721Z,1.87
2018-12-29T11:35:46.188Z,2.45
2018-12-29T11:40:49.654Z,2.23
2018-12-29T11:45:53.118Z,2.00
2018-12-29T11:50:56.662Z,2.00
2018-12-29T11:56:00.128Z,1.70
2018-12-29T12:01:03.591Z,2.00
2018-12-29T12:06:07.062Z,2.08
2018-12-29T12:11:10.527Z,2.03
2018-12-29T12:16:13.992Z,1.60
2018-12-29T12:21:17.456Z,2.00
2018-12-29T12:26:20.919Z,1.95
2018-12-29T12:31:24.391Z,1.87
2018-12-29T12:36:27.850Z,2.67
2018-12-29T12:41:31.394Z,1.92
2018-12-29T12:46:35.230Z,1.90
2018-12-29T12:51:39.078Z,1.47
2018-12-29T12:56:42.922Z,1.27
2018-12-29T13:01:46.662Z,1.43
2018-12-29T13:06:50.135Z,1.70
2018-12-29T13:11:53.604Z,1.60
2018-12-29T13:16:57.070Z,1.37
2018-12-29T13:22:00.535Z,1.65
2018-12-29T13:27:04.009Z,1.50
2018-12-29T13:32:07.471Z,1.40
2018-12-29T13:37:10.938Z,1.42
2018-12-29T13:42:14.405Z,1.47
2018-12-29T13:47:17.870Z,1.70
2018-12-29T13:52:21.335Z,1.40
2018-12-29T13:57:24.800Z,1.20
2018-12-29T14:02:28.264Z,1.40
2018-12-29T14:07:31.730Z,1.23
2018-12-29T14:12:35.195Z,1.43
2018-12-29T14:17:38.664Z,1.40
2018-12-29T14:22:42.133Z,1.23
2018-12-29T14:27:45.605Z,1.22
2018-12-29T14:32:49.067Z,1.50
2018-12-29T14:37:52.537Z,1.50
2018-12-29T14:42:56.001Z,1.40
2018-12-29T14:47:59.469Z,1.10
2018-12-29T14:53:02.934Z,1.30
2018-12-29T14:58:06.402Z,1.62
2018-12-29T15:03:09.867Z,1.32
2018-12-29T15:08:13.333Z,1.50
2018-12-29T15:13:16.802Z,1.10
2018-12-29T15:18:20.269Z,1.50
2018-12-29T15:23:24.024Z,1.55
2018-12-29T15:28:27.487Z,1.20
2018-12-29T15:33:30.980Z,1.20
2018-12-29T15:38:34.447Z,1.35
2018-12-29T15:43:37.947Z,1.20
2018-12-29T15:48:41.426Z,1.17
2018-12-29T15:53:44.890Z,1.20
2018-12-29T15:58:48.747Z,1.10
2018-12-29T16:03:52.509Z,0.95
2018-12-29T16:08:56.159Z,1.20
2018-12-29T16:13:59.922Z,1.35
2018-12-29T16:19:03.409Z,1.87
2018-12-29T16:24:06.897Z,1.00
2018-12-29T16:29:10.363Z,1.30
2018-12-29T16:34:13.848Z,1.10
2018-12-29T16:39:17.331Z,1.47
2018-12-29T16:44:20.817Z,1.20
2018-12-29T16:49:24.580Z,1.00
2018-12-29T16:54:28.064Z,1.07
2018-12-29T16:59:31.554Z,1.07
2018-12-29T17:04:35.042Z,1.00
2018-12-29T17:09:38.549Z,1.27
2018-12-29T17:14:42.019Z,0.90
2018-12-29T17:19:45.499Z,0.90
2018-12-29T17:24:48.979Z,1.33
2018-12-29T17:29:52.466Z,1.10
2018-12-29T17:34:55.953Z,1.40
2018-12-29T17:39:59.433Z,1.00
2018-12-29T17:45:03.771Z,1.27
2018-12-29T17:50:07.627Z,1.37
2018-12-29T17:55:11.110Z,1.10
2018-12-29T18:00:14.591Z,1.27
2018-12-29T18:05:18.071Z,0.90
2018-12-29T18:10:21.560Z,0.90
2018-12-29T18:15:25.034Z,1.25
2018-12-29T18:20:28.514Z,1.20
2018-12-29T18:25:31.997Z,1.15
2018-12-29T18:30:35.487Z,1.57
2018-12-29T18:35:38.967Z,1.98
2018-12-29T18:40:42.450Z,1.10
2018-12-29T18:45:45.930Z,1.20
2018-12-29T18:50:49.702Z,1.27
2018-12-29T18:55:53.181Z,1.27
2018-12-29T19:00:56.663Z,1.20
2018-12-29T19:06:00.146Z,1.17
2018-12-29T19:11:03.628Z,1.47
2018-12-29T19:16:07.114Z,1.47
2018-12-29T19:21:10.595Z,1.00
2018-12-29T19:26:14.365Z,1.40
2018-12-29T19:31:18.135Z,1.20
2018-12-29T19:36:21.628Z,1.60
2018-12-29T19:41:25.273Z,1.30
2018-12-29T19:46:29.136Z,1.73
2018-12-29T19:51:32.625Z,1.47
2018-12-29T19:56:36.106Z,1.23
2018-12-29T20:01:39.867Z,1.30
2018-12-29T20:06:43.928Z,1.47
2018-12-29T20:11:47.394Z,1.47
2018-12-29T20:16:50.940Z,1.40
2018-12-29T20:21:54.407Z,1.07
2018-12-29T20:26:58.152Z,1.00
2018-12-29T20:32:01.626Z,1.13
2018-12-29T20:37:05.368Z,1.27
2018-12-29T20:42:08.832Z,1.10
2018-12-29T20:47:12.297Z,1.30
2018-12-29T20:52:15.771Z,1.10
2018-12-29T20:57:19.232Z,1.10
2018-12-29T21:02:22.694Z,1.00
2018-12-29T21:07:26.160Z,1.00
2018-12-29T21:12:30.535Z,1.22
2018-12-29T21:17:34.000Z,1.10
2018-12-29T21:22:37.466Z,1.27
2018-12-29T21:27:40.934Z,1.10
2018-12-29T21:32:44.676Z,1.07
2018-12-29T21:37:48.145Z,1.02
2018-12-29T21:42:51.610Z,1.07
2018-12-29T21:47:55.081Z,1.20
2018-12-29T21:52:58.556Z,1.30
2018-12-29T21:58:02.021Z,1.10
2018-12-29T22:03:05.493Z,0.90
2018-12-29T22:08:08.961Z,1.07
2018-12-29T22:13:12.426Z,1.05
2018-12-29T22:18:16.076Z,1.00
2018-12-29T22:23:19.540Z,1.20
2018-12-29T22:28:24.541Z,1.10
2018-12-29T22:33:28.006Z,0.95
2018-12-29T22:38:31.477Z,0.90
2018-12-29T22:43:34.950Z,1.07
2018-12-29T22:48:38.422Z,1.10
2018-12-29T22:53:41.893Z,1.00
2018-12-29T22:58:45.362Z,0.90
2018-12-29T23:03:48.837Z,1.17
2018-12-29T23:08:52.302Z,0.90
2018-12-29T23:13:55.769Z,1.10
2018-12-29T23:18:59.245Z,0.77
2018-12-29T23:24:02.723Z,0.90
2018-12-29T23:29:06.193Z,0.87
2018-12-29T23:34:09.659Z,1.10
2018-12-29T23:39:13.130Z,0.93
2018-12-29T23:44:16.982Z,1.20
2018-12-29T23:49:20.457Z,0.90
2018-12-29T23:54:24.032Z,1.00
2018-12-29T23:59:27.804Z,0.90
